Time;durP1;ratioP1;P1;durP2;ratioP2;P2;SDS_P1;SDS_P2;PMS_P1;PMS_P2;Temp;Humidity;BMP_temperature;BMP_pressure;BME280_temperature;BME280_humidity;BME280_pressure;Samples;Min_cycle;Max_cycle;Signal;HPM_P1;HPM_P2
2022/07/20 00:01:02;;;;;;;;;23.00;21.33;;;;;28.29;100.00;100984.63;5006359;28;46196;-81
2022/07/20 00:03:40;;;;;;;;;21.00;21.00;;;;;28.38;100.00;101005.22;5030007;28;45519;-79
2022/07/20 00:06:05;;;;;;;;;27.00;21.33;;;;;28.33;100.00;100985.63;5028186;28;45579;-81
2022/07/20 00:11:21;;;;;;;;;22.67;19.00;;;;;28.23;100.00;100983.91;5012921;28;45757;-80
2022/07/20 00:13:53;;;;;;;;;21.00;20.67;;;;;28.36;100.00;101022.47;5027764;28;47046;-79
2022/07/20 00:16:24;;;;;;;;;25.67;24.67;;;;;28.22;100.00;101002.00;5029724;28;45430;-79
2022/07/20 00:18:50;;;;;;;;;23.00;20.67;;;;;28.32;100.00;101006.53;5014089;28;45892;-80
2022/07/20 00:21:16;;;;;;;;;22.33;20.33;;;;;28.32;100.00;101032.78;5006041;28;46823;-79
2022/07/20 00:23:41;;;;;;;;;24.33;22.33;;;;;28.31;100.00;101053.66;5021600;28;45775;-79
2022/07/20 00:26:08;;;;;;;;;26.67;24.33;;;;;28.25;100.00;101080.34;5009585;28;45450;-78
2022/07/20 00:28:36;;;;;;;;;27.33;25.00;;;;;28.24;100.00;101111.69;5014306;28;45828;-80
2022/07/20 00:31:02;;;;;;;;;26.00;23.67;;;;;27.96;100.00;101100.47;5029713;28;45551;-80
2022/07/20 00:33:33;;;;;;;;;27.00;24.00;;;;;28.17;100.00;101177.84;5019922;28;45937;-82
2022/07/20 00:35:59;;;;;;;;;23.00;21.67;;;;;27.97;100.00;101165.03;5016434;28;45391;-80
2022/07/20 00:38:27;;;;;;;;;25.00;22.33;;;;;28.08;100.00;101193.00;5004895;28;45450;-80
2022/07/20 00:40:52;;;;;;;;;29.67;21.67;;;;;28.10;100.00;101193.50;5004044;28;45567;-80
2022/07/20 00:43:17;;;;;;;;;26.33;22.00;;;;;27.96;100.00;101185.91;5005858;28;48417;-80
2022/07/20 00:45:43;;;;;;;;;24.00;20.33;;;;;27.75;100.00;101148.03;5005775;28;45511;-80
2022/07/20 00:48:08;;;;;;;;;34.33;28.33;;;;;27.92;100.00;101176.41;5013397;28;45794;-81
2022/07/20 00:50:38;;;;;;;;;28.33;23.00;;;;;27.57;100.00;101093.47;5025983;28;45441;-80
2022/07/20 00:53:04;;;;;;;;;31.00;27.67;;;;;27.74;100.00;101123.78;5020745;28;45806;-77
2022/07/20 00:55:34;;;;;;;;;23.00;22.00;;;;;27.62;100.00;101066.03;4997904;28;45395;-80
2022/07/20 00:58:01;;;;;;;;;34.33;31.00;;;;;27.39;100.00;101030.50;5010409;28;45708;-82
2022/07/20 01:00:48;;;;;;;;;38.33;33.33;;;;;27.08;100.00;101014.22;5029845;28;45584;-80
2022/07/20 01:03:13;;;;;;;;;38.33;35.00;;;;;27.45;100.00;101094.00;5010326;28;46279;-81
2022/07/20 01:05:39;;;;;;;;;42.67;36.33;;;;;26.90;100.00;101007.56;5015615;28;45849;-79
2022/07/20 01:08:06;;;;;;;;;45.00;35.67;;;;;27.18;100.00;101059.06;5023156;28;45410;-80
2022/07/20 01:11:10;;;;;;;;;50.33;40.33;;;;;26.75;100.00;101006.75;5022217;28;45584;-82
2022/07/20 01:13:39;;;;;;;;;38.67;35.33;;;;;26.63;100.00;100997.94;5016845;28;45568;-82
2022/07/20 01:16:04;;;;;;;;;47.00;38.67;;;;;26.75;100.00;101017.16;5025250;28;45552;-83
2022/07/20 01:18:33;;;;;;;;;49.33;40.00;;;;;26.86;100.00;101043.97;5001135;28;45546;-87
2022/07/20 01:21:06;;;;;;;;;51.67;39.33;;;;;26.80;100.00;101025.50;5037176;28;45358;-84
2022/07/20 01:23:35;;;;;;;;;52.00;43.00;;;;;26.47;100.00;100990.94;5019886;28;47242;-81
2022/07/20 01:29:43;;;;;;;;;;;;;;;;;;;;;
2022/07/20 01:32:52;;;;;;;;;50.67;42.67;;;;;25.99;100.00;101028.63;4976297;28;75058;-81
2022/07/20 01:35:21;;;;;;;;;54.33;42.67;;;;;26.18;100.00;101080.06;5032698;28;45350;-82
2022/07/20 01:45:19;;;;;;;;;54.67;44.33;;;;;25.89;100.00;101036.06;5015145;28;45555;-81
2022/07/20 01:47:46;;;;;;;;;57.67;46.67;;;;;25.83;100.00;101054.13;5001891;28;46325;-80
2022/07/20 01:50:11;;;;;;;;;58.00;46.33;;;;;25.64;100.00;101045.72;5017561;28;45686;-80
2022/07/20 01:52:50;;;;;;;;;54.00;43.33;;;;;25.43;100.00;101013.47;5022110;28;45524;-83
2022/07/20 01:55:41;;;;;;;;;55.00;44.00;;;;;25.78;100.00;101067.41;4727085;28;8695231;-83
2022/07/20 02:05:12;;;;;;;;;54.33;44.00;;;;;25.79;100.00;101106.44;4951230;28;45558;-80
2022/07/20 02:07:38;;;;;;;;;55.67;44.67;;;;;25.80;100.00;101146.66;4969311;28;45502;-80
2022/07/20 02:10:28;;;;;;;;;54.67;43.00;;;;;25.61;100.00;101132.56;4969391;28;46109;-81
2022/07/20 02:12:56;;;;;;;;;53.67;43.33;;;;;25.47;100.00;101129.66;4969497;28;45900;-82
2022/07/20 02:18:23;;;;;;;;;57.67;47.00;;;;;25.94;100.00;101172.00;5026793;28;45320;-82
2022/07/20 02:20:51;;;;;;;;;57.67;47.33;;;;;25.86;100.00;101122.94;5004337;28;46972;-80
2022/07/20 02:23:20;;;;;;;;;56.00;45.00;;;;;26.01;100.00;101150.84;5025965;28;45467;-79
2022/07/20 02:25:45;;;;;;;;;55.67;44.67;;;;;25.80;100.00;101130.59;4998245;28;45825;-82
2022/07/20 02:28:11;;;;;;;;;57.33;43.33;;;;;25.29;100.00;101041.41;5017464;28;46102;-81
2022/07/20 02:30:44;;;;;;;;;53.33;45.00;;;;;26.03;100.00;101164.59;5040788;28;48265;-82
2022/07/20 02:33:46;;;;;;;;;;;;;;;;;;;;;
2022/07/20 02:36:38;;;;;;;;;55.75;45.50;;;;;25.69;100.00;101112.25;5030385;28;68529;-81
2022/07/20 02:39:08;;;;;;;;;58.00;47.00;;;;;26.06;100.00;101181.72;5012623;28;46600;-82
2022/07/20 02:41:35;;;;;;;;;51.75;44.00;;;;;26.07;100.00;101185.34;5022771;28;47504;-83
2022/07/20 02:44:02;;;;;;;;;55.00;44.00;;;;;26.07;100.00;101176.91;5031126;28;45653;-82
2022/07/20 02:46:40;;;;;;;;;57.67;46.67;;;;;26.05;100.00;101180.03;5010256;28;45830;-82
2022/07/20 02:49:09;;;;;;;;;60.67;46.33;;;;;26.03;100.00;101173.88;5012022;28;45783;-79
2022/07/20 02:51:34;;;;;;;;;59.33;46.67;;;;;25.66;100.00;101138.97;5044175;28;48306;-81
2022/07/20 02:54:00;;;;;;;;;54.67;43.00;;;;;25.87;100.00;101176.03;5020893;28;45792;-78
2022/07/20 02:57:12;;;;;;;;;57.33;45.00;;;;;26.02;100.00;101207.91;5011621;28;45792;-81
2022/07/20 03:00:21;;;;;;;;;54.00;43.00;;;;;25.80;100.00;101185.97;5012799;28;45656;-82
2022/07/20 03:02:53;;;;;;;;;55.67;45.00;;;;;26.02;100.00;101233.22;5010908;28;46404;-81
2022/07/20 03:05:18;;;;;;;;;50.33;43.67;;;;;26.00;100.00;101247.53;5039573;28;46177;-81
2022/07/20 03:07:44;;;;;;;;;52.00;44.00;;;;;25.79;100.00;101226.44;5022962;28;45923;-81
2022/07/20 03:10:10;;;;;;;;;53.33;43.67;;;;;26.05;100.00;101269.16;5020362;28;45845;-79
2022/07/20 03:12:36;;;;;;;;;58.00;45.00;;;;;26.02;100.00;101262.16;5023858;28;46770;-80
2022/07/20 03:15:03;;;;;;;;;58.00;43.67;;;;;26.07;100.00;101286.53;5005256;28;45305;-80
2022/07/20 03:17:29;;;;;;;;;57.67;46.00;;;;;26.08;100.00;101291.88;5028745;28;45410;-79
2022/07/20 03:19:54;;;;;;;;;54.33;44.67;;;;;25.90;100.00;101264.53;5037996;28;45486;-80
2022/07/20 03:22:20;;;;;;;;;57.67;46.67;;;;;26.13;100.00;101305.00;5035971;28;45556;-79
2022/07/20 03:24:45;;;;;;;;;56.00;45.67;;;;;25.97;100.00;101278.19;5023598;28;46571;-81
2022/07/20 03:27:10;;;;;;;;;53.67;42.33;;;;;26.07;100.00;101278.94;5028805;28;45458;-80
2022/07/20 03:29:36;;;;;;;;;52.33;43.33;;;;;26.19;100.00;101278.50;5030721;28;45945;-81
2022/07/20 03:32:02;;;;;;;;;55.33;43.00;;;;;26.13;100.00;101265.66;5041137;28;45833;-80
2022/07/20 03:34:28;;;;;;;;;55.33;46.00;;;;;26.22;100.00;101277.91;5017852;28;45656;-78
2022/07/20 03:36:53;;;;;;;;;51.67;42.67;;;;;26.09;100.00;101258.97;5031521;28;45347;-80
2022/07/20 03:39:19;;;;;;;;;44.33;39.00;;;;;25.98;100.00;101246.16;5013726;28;46132;-79
2022/07/20 03:41:44;;;;;;;;;54.00;43.67;;;;;26.21;100.00;101273.44;5026193;28;45784;-79
2022/07/20 03:44:10;;;;;;;;;52.33;43.67;;;;;26.20;100.00;101285.81;5019548;28;45712;-80
2022/07/20 03:46:35;;;;;;;;;53.67;43.67;;;;;26.06;100.00;101274.47;5022504;28;45753;-80
2022/07/20 03:49:01;;;;;;;;;55.33;45.33;;;;;26.19;100.00;101275.69;5013053;28;46990;-80
2022/07/20 03:51:27;;;;;;;;;54.67;43.67;;;;;26.04;100.00;101268.28;5021972;28;45442;-82
2022/07/20 03:53:53;;;;;;;;;53.00;43.00;;;;;26.04;100.00;101276.72;5021938;28;45480;-80
2022/07/20 03:56:19;;;;;;;;;55.00;43.67;;;;;26.17;100.00;101314.53;5030808;28;45719;-79
2022/07/20 03:58:45;;;;;;;;;55.00;44.33;;;;;26.16;100.00;101338.16;5018506;28;45817;-84
2022/07/20 04:01:11;;;;;;;;;53.33;43.67;;;;;26.15;100.00;101335.63;5017602;28;45942;-81
2022/07/20 04:03:36;;;;;;;;;52.00;43.00;;;;;25.93;100.00;101313.66;5020692;28;45858;-79
2022/07/20 04:06:02;;;;;;;;;54.33;45.33;;;;;26.13;100.00;101372.47;5026605;28;45794;-85
2022/07/20 04:08:28;;;;;;;;;51.67;43.33;;;;;26.12;100.00;101373.59;5025570;28;45693;-81
2022/07/20 04:10:53;;;;;;;;;52.33;41.00;;;;;26.01;100.00;101361.66;5019057;28;46568;-80
2022/07/20 04:13:19;;;;;;;;;47.33;39.00;;;;;25.98;100.00;101333.28;5017393;28;45120;-82
2022/07/20 04:15:44;;;;;;;;;47.33;39.33;;;;;25.94;100.00;101323.78;5036800;28;45828;-81
2022/07/20 04:18:10;;;;;;;;;49.33;36.33;;;;;25.89;100.00;101310.63;5016094;28;45554;-81
2022/07/20 04:20:35;;;;;;;;;45.67;37.67;;;;;25.62;100.00;101289.56;5019405;28;45477;-79
2022/07/20 04:23:01;;;;;;;;;40.67;35.67;;;;;25.73;100.00;101312.75;5022338;28;45358;-80
2022/07/20 04:25:26;;;;;;;;;46.33;37.00;;;;;25.51;100.00;101294.47;5024598;28;45212;-85
2022/07/20 04:27:52;;;;;;;;;42.67;35.00;;;;;25.49;100.00;101319.19;5033120;28;44886;-82
2022/07/20 04:30:18;;;;;;;;;37.33;32.00;;;;;25.36;100.00;101287.03;5003490;28;46042;-83
2022/07/20 04:32:44;;;;;;;;;39.33;33.33;;;;;25.37;100.00;101273.81;5029927;28;45494;-85
2022/07/20 04:35:11;;;;;;;;;43.33;33.67;;;;;25.19;100.00;101244.47;5037915;28;45405;-84
2022/07/20 04:37:37;;;;;;;;;32.00;31.33;;;;;25.26;100.00;101255.38;5031941;28;45454;-81
2022/07/20 04:40:04;;;;;;;;;32.67;30.67;;;;;25.27;100.00;101237.38;5010793;28;47211;-79
2022/07/20 04:42:30;;;;;;;;;42.67;34.67;;;;;25.00;100.00;101177.88;5023877;28;45554;-80
2022/07/20 04:44:56;;;;;;;;;29.67;28.33;;;;;25.21;100.00;101205.75;5019974;28;45308;-79
2022/07/20 04:47:21;;;;;;;;;24.33;23.33;;;;;25.19;100.00;101194.81;5007277;28;47452;-82
2022/07/20 04:49:47;;;;;;;;;34.00;31.00;;;;;25.05;100.00;101195.81;5020885;28;46354;-79
2022/07/20 04:52:12;;;;;;;;;28.67;25.33;;;;;24.84;100.00;101185.59;5026524;28;45605;-79
2022/07/20 04:54:39;;;;;;;;;29.67;24.33;;;;;25.01;100.00;101218.81;5009830;28;45891;-78
2022/07/20 04:57:05;;;;;;;;;31.67;28.33;;;;;25.00;100.00;101230.34;5023320;28;45528;-78
2022/07/20 04:59:31;;;;;;;;;31.67;26.33;;;;;24.90;100.00;101247.28;5008786;28;47102;-79
2022/07/20 05:01:59;;;;;;;;;30.67;25.67;;;;;24.94;100.00;101262.38;5005996;28;45919;-81
2022/07/20 05:04:24;;;;;;;;;31.67;31.00;;;;;24.77;100.00;101277.66;5020844;28;45775;-79
2022/07/20 05:06:50;;;;;;;;;24.33;21.67;;;;;24.91;100.00;101314.34;5021571;28;46428;-80
2022/07/20 05:09:18;;;;;;;;;27.00;23.67;;;;;24.89;100.00;101319.38;5032679;28;45949;-78
2022/07/20 05:11:44;;;;;;;;;29.67;26.33;;;;;25.09;100.00;101326.81;5033815;28;45619;-84
2022/07/20 05:14:10;;;;;;;;;23.00;21.00;;;;;25.12;100.00;101309.41;5020478;28;45590;-82
2022/07/20 05:16:36;;;;;;;;;23.00;23.00;;;;;25.09;100.00;101287.53;5036473;28;45442;-81
2022/07/20 05:19:02;;;;;;;;;25.00;21.00;;;;;25.05;100.00;101275.22;5019153;28;47086;-81
2022/07/20 05:21:28;;;;;;;;;24.00;19.00;;;;;25.08;100.00;101299.88;5015507;28;45660;-78
2022/07/20 05:23:53;;;;;;;;;23.67;19.33;;;;;24.97;100.00;101273.88;5013440;28;45973;-78
2022/07/20 05:26:19;;;;;;;;;22.67;17.33;;;;;24.91;100.00;101286.28;5032356;28;45818;-79
2022/07/20 05:28:44;;;;;;;;;26.00;21.67;;;;;24.70;100.00;101243.53;5012866;28;48178;-81
2022/07/20 05:31:13;;;;;;;;;23.33;21.00;;;;;24.93;100.00;101255.94;5027011;28;45510;-77
2022/07/20 05:33:40;;;;;;;;;24.33;22.33;;;;;24.94;100.00;101223.09;5015447;28;45961;-81
2022/07/20 05:36:06;;;;;;;;;22.00;21.00;;;;;24.97;100.00;101200.91;5004494;28;45860;-79
2022/07/20 05:38:31;;;;;;;;;26.00;21.00;;;;;24.87;100.00;101167.34;5016218;28;47090;-78
2022/07/20 05:40:57;;;;;;;;;22.00;19.67;;;;;24.98;100.00;101168.91;5019734;28;46181;-80
2022/07/20 05:43:23;;;;;;;;;23.33;21.00;;;;;24.98;100.00;101208.19;5014617;28;45447;-81
2022/07/20 05:45:48;;;;;;;;;23.33;22.00;;;;;24.93;100.00;101229.88;5019125;28;45499;-81
2022/07/20 05:48:15;;;;;;;;;23.00;21.00;;;;;24.79;100.00;101229.69;5028003;28;45438;-85
2022/07/20 05:50:42;;;;;;;;;21.00;19.33;;;;;25.00;100.00;101256.44;5015421;28;45946;-81
2022/07/20 05:53:08;;;;;;;;;24.67;18.33;;;;;25.10;100.00;101271.53;5027246;28;45826;-78
2022/07/20 05:55:34;;;;;;;;;23.67;22.33;;;;;25.16;100.00;101271.16;5027409;28;45776;-80
2022/07/20 05:58:01;;;;;;;;;23.00;22.00;;;;;25.22;100.00;101273.94;5022858;28;46695;-79
2022/07/20 06:00:26;;;;;;;;;18.33;18.00;;;;;25.26;100.00;101266.59;5012951;28;45816;-82
2022/07/20 06:02:52;;;;;;;;;23.00;21.67;;;;;25.36;100.00;101275.78;5019609;28;45770;-80
2022/07/20 06:05:17;;;;;;;;;24.00;21.00;;;;;25.36;100.00;101272.16;5013336;28;45468;-82
2022/07/20 06:07:43;;;;;;;;;24.00;20.67;;;;;25.26;100.00;101256.22;5013432;28;47169;-79
2022/07/20 06:10:08;;;;;;;;;22.67;21.67;;;;;25.24;100.00;101254.81;5036607;28;45459;-79
2022/07/20 06:12:34;;;;;;;;;24.67;21.33;;;;;25.32;100.00;101288.75;5006398;28;45744;-80
2022/07/20 06:14:59;;;;;;;;;21.00;18.67;;;;;25.22;100.00;101269.16;5022586;28;45382;-79
2022/07/20 06:17:36;;;;;;;;;21.00;18.67;;;;;25.23;100.00;101258.78;5022809;28;45577;-83
2022/07/20 06:20:13;;;;;;;;;25.00;21.33;;;;;25.23;100.00;101250.34;5023533;28;45698;-80
2022/07/20 06:22:41;;;;;;;;;21.33;21.33;;;;;25.33;100.00;101256.75;5009613;28;45829;-79
2022/07/20 06:25:08;;;;;;;;;25.00;24.33;;;;;25.33;100.00;101253.06;5014140;28;46977;-80
2022/07/20 06:27:33;;;;;;;;;20.67;19.33;;;;;25.42;100.00;101282.19;5026165;28;46842;-79
2022/07/20 06:29:59;;;;;;;;;24.67;23.33;;;;;25.33;100.00;101289.56;5008581;28;45871;-79
2022/07/20 06:32:25;;;;;;;;;22.00;21.33;;;;;25.26;100.00;101298.31;5006143;28;46000;-79
2022/07/20 06:34:51;;;;;;;;;22.00;19.33;;;;;25.42;100.00;101332.75;5029205;28;46109;-80
2022/07/20 06:37:17;;;;;;;;;24.33;20.33;;;;;25.34;100.00;101334.19;5021607;28;45647;-79
2022/07/20 06:39:43;;;;;;;;;24.33;22.33;;;;;25.37;100.00;101346.81;5022760;28;45846;-83
2022/07/20 06:42:09;;;;;;;;;20.33;15.67;;;;;25.38;100.00;101342.88;5009668;28;45819;-78
2022/07/20 06:44:34;;;;;;;;;24.00;22.00;;;;;25.30;100.00;101330.31;5024383;28;46037;-79
2022/07/20 06:47:00;;;;;;;;;24.00;23.67;;;;;25.25;100.00;101333.13;5026367;28;46223;-80
2022/07/20 06:49:26;;;;;;;;;23.33;23.33;;;;;25.10;100.00;101348.13;5033496;28;45719;-81
2022/07/20 06:51:54;;;;;;;;;26.67;24.00;;;;;24.95;100.00;101342.63;5009681;28;45438;-80
2022/07/20 06:54:21;;;;;;;;;25.33;21.33;;;;;24.82;100.00;101316.06;5027984;28;45402;-80
2022/07/20 07:00:56;;;;;;;;;;;;;;;;;;;;;
2022/07/20 07:04:04;;;;;;;;;23.33;18.33;;;;;24.47;100.00;101293.53;4983819;28;67872;-82
2022/07/20 07:06:50;;;;;;;;;20.33;18.33;;;;;24.18;100.00;101247.72;5019023;28;45541;-82
2022/07/20 07:09:35;;;;;;;;;22.33;21.67;;;;;24.43;100.00;101295.25;5033575;28;47108;-82
2022/07/20 07:12:01;;;;;;;;;22.67;19.67;;;;;24.28;100.00;101293.38;5030082;28;45718;-81
2022/07/20 07:14:26;;;;;;;;;19.67;19.00;;;;;24.11;100.00;101285.31;5024575;28;45692;-79
2022/07/20 07:16:53;;;;;;;;;19.33;18.33;;;;;24.23;100.00;101326.19;5039875;28;46630;-76
2022/07/20 07:19:22;;;;;;;;;18.00;18.00;;;;;24.15;100.00;101308.84;5022012;28;45566;-76
2022/07/20 07:21:47;;;;;;;;;18.00;18.00;;;;;24.06;100.00;101310.56;5025733;28;45445;-78
2022/07/20 07:24:13;;;;;;;;;21.33;19.00;;;;;24.08;100.00;101336.34;5026400;28;45833;-76
2022/07/20 07:26:38;;;;;;;;;29.00;23.00;;;;;24.06;100.00;101361.00;5025450;28;45715;-76
2022/07/20 07:29:04;;;;;;;;;21.67;20.67;;;;;24.06;100.00;101366.63;5019694;28;47166;-78
2022/07/20 07:31:29;;;;;;;;;2.00;0.00;;;;;24.04;100.00;101349.25;5011621;28;45423;-78
2022/07/20 07:33:54;;;;;;;;;21.33;21.00;;;;;23.70;100.00;101288.25;5011613;28;45396;-78
2022/07/20 07:36:20;;;;;;;;;21.67;18.33;;;;;23.79;100.00;101313.72;5019332;28;45546;-77
2022/07/20 07:38:49;;;;;;;;;22.33;18.33;;;;;23.91;100.00;101347.06;5030740;28;46413;-79
2022/07/20 07:41:14;;;;;;;;;20.00;19.33;;;;;23.62;100.00;101328.03;5024661;28;45817;-79
2022/07/20 07:43:40;;;;;;;;;25.67;20.67;;;;;23.71;100.00;101337.56;5028801;28;45532;-76
2022/07/20 07:46:05;;;;;;;;;23.00;21.00;;;;;23.88;100.00;101384.03;5015242;28;45415;-77
2022/07/20 07:48:31;;;;;;;;;30.00;23.67;;;;;23.56;100.00;101341.22;5033056;28;45630;-77
2022/07/20 07:50:56;;;;;;;;;22.00;18.33;;;;;24.00;100.00;101395.78;5013303;28;45440;-76
2022/07/20 07:53:22;;;;;;;;;25.33;22.67;;;;;24.14;100.00;101391.25;5031912;28;45600;-76
2022/07/20 07:55:47;;;;;;;;;25.67;22.00;;;;;24.19;100.00;101376.38;5032334;28;45506;-76
2022/07/20 07:58:13;;;;;;;;;25.67;24.67;;;;;24.60;100.00;101400.66;5030731;28;46160;-75
2022/07/20 08:00:40;;;;;;;;;22.33;20.00;;;;;24.88;100.00;101395.44;5017013;28;45355;-76
2022/07/20 08:03:06;;;;;;;;;23.33;20.67;;;;;25.12;100.00;101390.78;5032496;28;45391;-75
2022/07/20 08:05:31;;;;;;;;;28.33;22.33;;;;;25.29;100.00;101381.13;5014125;28;45839;-78
2022/07/20 08:07:57;;;;;;;;;25.67;25.00;;;;;25.40;100.00;101376.28;5032364;28;45478;-76
2022/07/20 08:10:23;;;;;;;;;23.33;20.67;;;;;25.57;100.00;101379.50;5029749;28;45846;-75
2022/07/20 08:12:49;;;;;;;;;23.67;22.33;;;;;25.90;100.00;101374.13;5032378;28;45421;-77
2022/07/20 08:15:15;;;;;;;;;25.33;24.67;;;;;26.64;100.00;101373.81;5027347;28;45421;-76
2022/07/20 08:17:46;;;;;;;;;24.00;18.33;;;;;27.33;100.00;101376.19;5004258;28;46161;-76
2022/07/20 08:20:12;;;;;;;;;17.00;17.00;;;;;27.85;100.00;101375.31;5030945;28;45831;-80
2022/07/20 08:22:38;;;;;;;;;18.33;18.33;;;;;28.20;100.00;101364.47;5025942;28;45776;-76
2022/07/20 08:25:07;;;;;;;;;21.33;21.33;;;;;28.40;100.00;101374.50;5028207;28;45934;-81
2022/07/20 08:27:33;;;;;;;;;20.67;19.00;;;;;28.53;100.00;101363.22;5028935;28;46377;-79
2022/07/20 08:29:59;;;;;;;;;20.00;18.33;;;;;28.78;100.00;101382.72;5033193;28;45424;-76
2022/07/20 08:32:25;;;;;;;;;27.67;24.00;;;;;28.82;100.00;101347.06;5005289;28;46143;-76
2022/07/20 08:34:51;;;;;;;;;22.67;19.67;;;;;29.14;100.00;101348.00;5031824;28;46140;-79
2022/07/20 08:37:17;;;;;;;;;26.67;23.67;;;;;29.34;100.00;101356.00;5028561;28;46764;-81
2022/07/20 08:39:42;;;;;;;;;27.33;27.33;;;;;29.23;100.00;101340.44;5030513;28;45661;-79
2022/07/20 08:42:09;;;;;;;;;21.67;19.00;;;;;29.40;100.00;101379.28;5017143;28;45408;-79
2022/07/20 08:44:34;;;;;;;;;22.33;18.33;;;;;29.29;100.00;101373.06;5016101;28;45828;-81
2022/07/20 08:47:01;;;;;;;;;22.00;19.00;;;;;29.06;100.00;101358.91;5030392;28;45774;-79
2022/07/20 08:49:28;;;;;;;;;18.00;16.33;;;;;28.95;100.00;101374.41;5028412;28;45428;-80
2022/07/20 08:51:53;;;;;;;;;18.33;15.00;;;;;28.84;100.00;101381.47;5020348;28;45486;-80
2022/07/20 08:54:19;;;;;;;;;19.00;15.67;;;;;28.64;100.00;101386.41;5013871;28;46099;-82
2022/07/20 08:56:44;;;;;;;;;14.00;13.00;;;;;28.47;100.00;101375.72;5025906;28;45932;-80
2022/07/20 08:59:10;;;;;;;;;13.00;13.00;;;;;28.34;100.00;101391.53;5029621;28;45320;-82
2022/07/20 09:02:03;;;;;;;;;15.67;14.00;;;;;28.09;100.00;101392.06;4996126;28;45666;-73
2022/07/20 09:04:29;;;;;;;;;15.33;13.00;;;;;27.93;100.00;101392.31;5010716;28;46315;-75
2022/07/20 09:06:55;;;;;;;;;15.00;14.33;;;;;27.90;100.00;101390.13;5016637;28;45706;-76
2022/07/20 09:09:22;;;;;;;;;13.33;11.67;;;;;27.86;100.00;101372.16;5019978;28;45383;-77
2022/07/20 09:11:48;;;;;;;;;16.67;13.67;;;;;27.90;100.00;101383.66;5016444;28;45359;-76
2022/07/20 09:14:34;;;;;;;;;12.67;12.67;;;;;28.11;100.00;101384.94;5022220;28;45546;-78
2022/07/20 09:17:14;;;;;;;;;14.00;11.67;;;;;28.81;100.00;101379.28;5014843;28;47588;-80
2022/07/20 09:20:07;;;;;;;;;16.00;13.00;;;;;29.35;100.00;101370.94;5013040;28;45735;-81
2022/07/20 09:22:39;;;;;;;;;9.67;9.67;;;;;29.96;100.00;101361.97;5010445;28;45609;-76
2022/07/20 09:25:13;;;;;;;;;12.33;11.33;;;;;30.57;100.00;101370.69;5011326;28;45471;-75
2022/07/20 09:27:42;;;;;;;;;11.33;11.33;;;;;30.98;100.00;101355.25;5014461;28;46206;-77
2022/07/20 09:30:16;;;;;;;;;11.33;9.00;;;;;31.76;99.34;101381.88;5028996;28;45772;-77
2022/07/20 09:32:49;;;;;;;;;10.67;10.00;;;;;31.95;94.11;101372.97;5008581;28;45515;-76
2022/07/20 09:35:15;;;;;;;;;11.00;9.33;;;;;31.90;91.29;101375.97;4993133;28;45562;-77
2022/07/20 09:37:40;;;;;;;;;9.33;8.67;;;;;31.93;90.20;101378.13;5017631;28;47270;-77
2022/07/20 09:40:06;;;;;;;;;8.67;8.67;;;;;31.90;90.83;101365.44;5025974;28;45559;-76
2022/07/20 09:42:39;;;;;;;;;10.33;10.33;;;;;31.70;90.89;101366.22;5026094;28;45374;-76
2022/07/20 09:45:18;;;;;;;;;8.25;6.75;;;;;31.31;91.26;101374.59;5025362;28;45728;-75
2022/07/20 09:48:10;;;;;;;;;6.00;6.00;;;;;30.85;92.25;101370.41;4999969;28;45566;-75
2022/07/20 09:50:42;;;;;;;;;6.75;6.75;;;;;30.42;94.22;101372.00;5018406;28;45937;-78
2022/07/20 09:53:15;;;;;;;;;6.00;6.00;;;;;30.13;96.92;101367.72;5006218;28;45441;-76
2022/07/20 09:55:45;;;;;;;;;6.00;5.25;;;;;29.71;99.61;101365.16;5013349;28;45895;-84
2022/07/20 09:58:11;;;;;;;;;6.00;5.00;;;;;29.54;100.00;101384.88;5020772;28;46186;-80
2022/07/20 10:00:37;;;;;;;;;6.00;6.00;;;;;29.24;100.00;101387.31;5007726;28;45868;-78
2022/07/20 10:03:04;;;;;;;;;11.67;8.33;;;;;29.02;100.00;101386.09;5026308;28;45353;-82
2022/07/20 10:05:35;;;;;;;;;10.00;8.33;;;;;28.69;100.00;101386.28;5028941;28;45708;-82
2022/07/20 10:08:02;;;;;;;;;12.67;11.67;;;;;28.30;100.00;101365.09;5002717;28;47106;-82
2022/07/20 10:10:32;;;;;;;;;7.00;5.67;;;;;28.36;100.00;101382.75;5011776;28;45456;-77
2022/07/20 10:12:59;;;;;;;;;9.33;8.00;;;;;28.22;100.00;101393.19;5012815;28;45798;-78
2022/07/20 10:15:37;;;;;;;;;9.33;7.67;;;;;28.10;100.00;101391.75;5021509;28;45837;-78
2022/07/20 10:18:10;;;;;;;;;6.75;5.50;;;;;28.00;100.00;101392.78;5022580;28;47258;-78
2022/07/20 10:20:37;;;;;;;;;6.25;6.00;;;;;27.83;100.00;101392.53;5017618;28;45777;-81
2022/07/20 10:23:14;;;;;;;;;6.50;5.75;;;;;27.74;100.00;101398.03;5022218;28;47571;-78
2022/07/20 10:25:45;;;;;;;;;5.75;5.75;;;;;27.68;100.00;101373.91;5022705;28;45648;-77
2022/07/20 10:28:22;;;;;;;;;5.00;5.00;;;;;27.94;100.00;101396.81;5007148;28;47338;-76
2022/07/20 10:31:17;;;;;;;;;5.75;5.75;;;;;28.09;100.00;101403.34;5008465;28;45982;-77
2022/07/20 10:33:43;;;;;;;;;5.00;5.00;;;;;28.21;100.00;101383.91;5014096;28;46269;-77
2022/07/20 10:39:18;;;;;;;;;6.33;6.33;;;;;28.20;100.00;101356.84;5022392;28;46171;-78
2022/07/20 10:42:21;;;;;;;;;7.25;6.00;;;;;28.32;100.00;101396.66;5018097;28;46022;-77
2022/07/20 10:44:47;;;;;;;;;8.25;6.75;;;;;28.22;100.00;101394.06;5009455;28;45645;-76
2022/07/20 10:47:45;;;;;;;;;7.00;6.25;;;;;28.27;100.00;101408.03;5025052;28;45631;-77
2022/07/20 10:50:32;;;;;;;;;6.25;6.25;;;;;28.21;100.00;101395.19;5023886;28;46553;-77
2022/07/20 10:53:23;;;;;;;;;6.75;6.00;;;;;28.20;100.00;101409.59;5019683;28;45930;-78
2022/07/20 10:55:52;;;;;;;;;7.00;6.00;;;;;27.99;100.00;101385.47;5012909;28;45658;-78
2022/07/20 10:58:27;;;;;;;;;4.50;4.25;;;;;27.86;100.00;101389.09;5003745;28;46042;-77
2022/07/20 11:00:58;;;;;;;;;7.25;6.00;;;;;27.87;100.00;101404.84;5024135;28;45876;-78
2022/07/20 11:03:29;;;;;;;;;6.50;6.25;;;;;27.78;100.00;101413.16;5017124;28;45795;-76
2022/07/20 11:06:10;;;;;;;;;4.00;4.00;;;;;27.64;100.00;101404.69;5023965;28;45518;-80
2022/07/20 11:08:37;;;;;;;;;5.25;5.25;;;;;27.63;100.00;101414.28;5008173;28;46407;-81
2022/07/20 11:11:07;;;;;;;;;6.00;4.75;;;;;27.48;100.00;101406.91;5027375;28;46226;-83
2022/07/20 11:13:33;;;;;;;;;8.00;5.50;;;;;27.55;100.00;101412.16;5043199;28;45327;-82
2022/07/20 11:16:01;;;;;;;;;9.33;8.00;;;;;27.56;100.00;101408.22;5036310;28;45565;-81
2022/07/20 11:18:32;;;;;;;;;5.75;5.75;;;;;27.50;100.00;101423.53;5013784;28;45576;-82
2022/07/20 11:21:11;;;;;;;;;6.25;5.25;;;;;27.46;100.00;101425.28;5029577;28;45474;-82
2022/07/20 11:23:57;;;;;;;;;4.50;4.50;;;;;27.41;100.00;101422.53;5003937;28;45457;-82
2022/07/20 11:26:23;;;;;;;;;5.50;4.75;;;;;27.24;100.00;101407.00;5036084;28;45853;-82
2022/07/20 11:28:51;;;;;;;;;7.00;5.25;;;;;27.19;100.00;101393.00;5014842;28;46338;-82
2022/07/20 11:31:20;;;;;;;;;7.50;5.25;;;;;27.21;100.00;101390.72;5034250;28;45819;-81
2022/07/20 11:33:48;;;;;;;;;6.00;6.00;;;;;27.30;100.00;101393.69;5031633;28;45783;-81
2022/07/20 11:36:16;;;;;;;;;5.00;5.00;;;;;27.30;100.00;101380.44;5035960;28;45888;-81
2022/07/20 11:39:05;;;;;;;;;5.25;4.00;;;;;27.31;100.00;101372.81;5031522;28;45648;-82
2022/07/20 11:41:30;;;;;;;;;3.50;3.50;;;;;27.46;100.00;101388.66;5026299;28;47187;-81
2022/07/20 11:43:57;;;;;;;;;5.25;4.00;;;;;27.45;100.00;101376.53;5007220;28;45766;-80
2022/07/20 11:46:24;;;;;;;;;6.50;5.50;;;;;27.56;100.00;101385.69;5033693;28;45422;-80
2022/07/20 11:48:59;;;;;;;;;6.00;5.33;;;;;27.57;100.00;101384.50;5010194;28;45748;-81
2022/07/20 11:51:25;;;;;;;;;7.33;5.33;;;;;27.42;100.00;101367.88;5006931;28;48072;-80